createdAt,value
2022-08-17T00:00:11.029Z,20.12
2022-08-17T00:03:02.753Z,20.10
2022-08-17T00:05:32.197Z,20.07
2022-08-17T00:07:59.850Z,20.06
2022-08-17T00:10:27.705Z,20.03
2022-08-17T00:12:56.576Z,20.00
2022-08-17T00:15:25.103Z,19.97
2022-08-17T00:17:53.346Z,19.94
2022-08-17T00:20:30.376Z,19.94
2022-08-17T00:23:08.428Z,19.91
2022-08-17T00:25:36.227Z,19.88
2022-08-17T00:28:04.236Z,19.85
2022-08-17T00:30:51.316Z,19.83
2022-08-17T00:33:22.427Z,19.81
2022-08-17T00:35:51.798Z,19.77
2022-08-17T00:38:20.221Z,19.76
2022-08-17T00:40:50.651Z,19.74
2022-08-17T00:43:23.837Z,19.71
2022-08-17T00:45:51.389Z,19.68
2022-08-17T00:48:29.265Z,19.66
2022-08-17T00:51:06.439Z,19.63
2022-08-17T00:53:37.413Z,19.59
2022-08-17T00:56:09.814Z,19.58
2022-08-17T00:58:38.367Z,19.54
2022-08-17T01:01:08.068Z,19.53
2022-08-17T01:03:36.186Z,19.50
2022-08-17T01:06:07.209Z,19.46
2022-08-17T01:08:36.808Z,19.45
2022-08-17T01:11:06.329Z,19.42
2022-08-17T01:13:41.189Z,19.40
2022-08-17T01:16:16.951Z,19.39
2022-08-17T01:18:46.701Z,19.35
2022-08-17T01:21:21.851Z,19.34
2022-08-17T01:23:50.827Z,19.32
2022-08-17T01:26:19.111Z,19.29
2022-08-17T01:28:53.727Z,19.28
2022-08-17T01:31:25.065Z,19.26
2022-08-17T01:33:52.961Z,19.24
2022-08-17T01:36:20.576Z,19.23
2022-08-17T01:38:48.381Z,19.21
2022-08-17T01:41:18.011Z,19.16
2022-08-17T01:43:48.874Z,19.14
2022-08-17T01:46:21.185Z,19.13
2022-08-17T01:48:51.093Z,19.11
2022-08-17T01:51:19.938Z,19.09
2022-08-17T01:53:50.846Z,19.07
2022-08-17T01:56:23.383Z,19.04
2022-08-17T01:58:52.401Z,19.03
2022-08-17T02:01:23.171Z,19.00
2022-08-17T02:03:56.296Z,18.99
2022-08-17T02:06:29.255Z,18.98
2022-08-17T02:09:02.554Z,18.95
2022-08-17T02:11:34.572Z,18.94
2022-08-17T02:14:04.120Z,18.92
2022-08-17T02:16:37.853Z,18.90
2022-08-17T02:19:08.447Z,18.86
2022-08-17T02:21:36.527Z,18.85
2022-08-17T02:24:05.578Z,18.83
2022-08-17T02:26:34.699Z,18.82
2022-08-17T02:29:04.125Z,18.80
2022-08-17T02:31:32.002Z,18.77
2022-08-17T02:34:03.910Z,18.74
2022-08-17T02:36:33.935Z,18.74
2022-08-17T02:39:02.198Z,18.70
2022-08-17T02:41:29.772Z,18.69
2022-08-17T02:43:58.855Z,18.68
2022-08-17T02:46:26.921Z,18.65
2022-08-17T02:48:54.570Z,18.63
2022-08-17T02:51:22.153Z,18.61
2022-08-17T02:53:49.814Z,18.61
2022-08-17T02:56:17.490Z,18.59
2022-08-17T02:58:46.368Z,18.57
2022-08-17T03:01:15.808Z,18.56
2022-08-17T03:03:43.551Z,18.54
2022-08-17T03:06:11.395Z,18.49
2022-08-17T03:08:38.963Z,18.50
2022-08-17T03:11:06.618Z,18.46
2022-08-17T03:13:34.208Z,18.45
2022-08-17T03:16:01.829Z,18.43
2022-08-17T03:18:30.753Z,18.43
2022-08-17T03:21:04.241Z,18.39
2022-08-17T03:23:32.547Z,18.36
2022-08-17T03:26:01.567Z,18.34
2022-08-17T03:28:29.845Z,18.33
2022-08-17T03:30:57.534Z,18.30
2022-08-17T03:33:25.100Z,18.30
2022-08-17T03:35:54.072Z,18.28
2022-08-17T03:38:21.995Z,18.25
2022-08-17T03:40:56.488Z,18.24
2022-08-17T03:43:29.463Z,18.23
2022-08-17T03:46:27.689Z,18.21
2022-08-17T03:49:17.579Z,18.18
2022-08-17T03:52:04.006Z,18.17
2022-08-17T03:54:49.713Z,18.14
2022-08-17T03:57:17.430Z,18.13
2022-08-17T03:59:45.369Z,18.13
2022-08-17T04:02:18.531Z,18.12
2022-08-17T04:04:46.753Z,18.12
2022-08-17T04:07:15.687Z,18.11
2022-08-17T04:09:44.582Z,18.11
2022-08-17T04:12:13.500Z,18.07
2022-08-17T04:14:53.678Z,18.06
2022-08-17T04:17:23.540Z,18.05
2022-08-17T04:19:51.319Z,18.04
2022-08-17T04:22:32.401Z,18.04
2022-08-17T04:25:04.145Z,18.04
2022-08-17T04:27:31.750Z,18.02
2022-08-17T04:29:59.690Z,18.02
2022-08-17T04:33:04.150Z,18.00
2022-08-17T04:35:19.579Z,18.01
2022-08-17T04:37:48.601Z,18.02
2022-08-17T04:40:33.766Z,18.05
2022-08-17T04:43:02.934Z,18.04
2022-08-17T04:45:32.341Z,18.06
2022-08-17T04:48:00.894Z,18.09
2022-08-17T04:50:28.743Z,18.11
2022-08-17T04:52:57.873Z,18.15
2022-08-17T04:55:25.843Z,18.18
2022-08-17T04:57:54.011Z,18.21
2022-08-17T05:00:22.406Z,18.24
2022-08-17T05:02:52.495Z,18.34
2022-08-17T05:05:21.219Z,18.36
2022-08-17T05:07:49.032Z,18.44
2022-08-17T05:10:18.165Z,18.45
2022-08-17T05:12:45.719Z,18.46
2022-08-17T05:15:15.939Z,18.54
2022-08-17T05:17:43.665Z,18.62
2022-08-17T05:20:12.371Z,18.76
2022-08-17T05:22:50.159Z,19.95
2022-08-17T05:25:24.939Z,19.69
2022-08-17T05:27:54.150Z,19.22
2022-08-17T05:30:23.023Z,19.01
2022-08-17T05:32:55.435Z,19.06
2022-08-17T05:35:23.752Z,19.11
2022-08-17T05:37:51.516Z,19.23
2022-08-17T05:40:24.273Z,19.99
2022-08-17T05:42:51.987Z,21.14
2022-08-17T05:45:54.916Z,21.00
2022-08-17T05:48:10.273Z,21.21
2022-08-17T05:50:49.647Z,21.80
2022-08-17T05:53:23.875Z,21.49
2022-08-17T05:56:03.827Z,20.70
2022-08-17T05:58:41.928Z,19.87
2022-08-17T06:01:16.571Z,19.59
2022-08-17T06:03:50.260Z,19.55
2022-08-17T06:06:32.709Z,19.43
2022-08-17T06:09:14.459Z,19.40
2022-08-17T06:11:53.646Z,19.33
2022-08-17T06:14:37.470Z,19.33
2022-08-17T06:17:10.040Z,19.27
2022-08-17T06:19:43.213Z,19.35
2022-08-17T06:22:14.430Z,19.44
2022-08-17T06:24:46.827Z,19.49
2022-08-17T06:27:24.393Z,19.47
2022-08-17T06:29:58.412Z,19.52
2022-08-17T06:32:26.577Z,19.59
2022-08-17T06:34:55.374Z,19.55
2022-08-17T06:37:42.003Z,19.57
2022-08-17T06:40:29.202Z,19.62
2022-08-17T06:43:12.440Z,19.68
2022-08-17T06:45:49.557Z,19.73
2022-08-17T06:48:25.872Z,19.71
2022-08-17T06:51:00.087Z,19.74
2022-08-17T06:53:32.984Z,19.74
2022-08-17T06:56:05.967Z,19.84
2022-08-17T06:58:37.425Z,19.94
2022-08-17T07:01:12.990Z,20.03
2022-08-17T07:03:47.693Z,20.16
2022-08-17T07:06:18.453Z,20.27
2022-08-17T07:08:54.082Z,20.36
2022-08-17T07:11:28.357Z,20.47
2022-08-17T07:14:08.425Z,20.56
2022-08-17T07:16:42.068Z,20.65
2022-08-17T07:19:10.919Z,20.64
2022-08-17T07:21:54.940Z,20.70
2022-08-17T07:24:37.321Z,20.79
2022-08-17T07:27:17.035Z,20.88
2022-08-17T07:29:51.227Z,21.00
2022-08-17T07:32:24.064Z,21.04
2022-08-17T07:35:16.245Z,21.08
2022-08-17T07:37:53.059Z,21.20
2022-08-17T07:40:28.109Z,21.36
2022-08-17T07:43:05.079Z,21.36
2022-08-17T07:45:54.115Z,21.39
2022-08-17T07:48:26.949Z,21.57
2022-08-17T07:50:54.668Z,21.63
2022-08-17T07:53:24.542Z,21.67
2022-08-17T07:55:53.888Z,21.72
2022-08-17T07:58:23.862Z,21.86
2022-08-17T08:01:07.940Z,21.92
2022-08-17T08:03:42.572Z,22.00
2022-08-17T08:06:21.757Z,22.20
2022-08-17T08:08:53.412Z,22.31
2022-08-17T08:11:31.059Z,22.41
2022-08-17T08:14:21.704Z,22.41
2022-08-17T08:17:03.233Z,22.52
2022-08-17T08:19:32.456Z,22.58
2022-08-17T08:22:06.871Z,22.56
2022-08-17T08:24:50.226Z,22.63
2022-08-17T08:27:27.984Z,22.85
2022-08-17T08:30:05.219Z,22.93
2022-08-17T08:32:50.344Z,23.20
2022-08-17T08:35:26.821Z,23.29
2022-08-17T08:38:01.517Z,23.35
2022-08-17T08:40:39.453Z,23.43
2022-08-17T08:43:18.302Z,23.41
2022-08-17T08:45:56.637Z,23.53
2022-08-17T08:48:55.823Z,23.63
2022-08-17T08:51:37.577Z,23.78
2022-08-17T08:54:15.501Z,23.89
2022-08-17T08:57:11.987Z,23.92
2022-08-17T08:59:44.577Z,24.02
2022-08-17T09:02:34.912Z,24.14
2022-08-17T09:05:18.502Z,24.68
2022-08-17T09:07:57.396Z,24.62
2022-08-17T09:10:29.371Z,24.47
2022-08-17T09:13:09.893Z,24.45
2022-08-17T09:15:45.020Z,24.55
2022-08-17T09:19:00.795Z,24.61
2022-08-17T09:21:18.251Z,24.63
2022-08-17T09:23:59.806Z,25.00
2022-08-17T09:26:32.615Z,25.07
2022-08-17T09:29:04.723Z,25.01
2022-08-17T09:31:35.439Z,25.11
2022-08-17T09:34:33.293Z,25.53
2022-08-17T09:37:12.188Z,25.62
2022-08-17T09:39:46.281Z,25.56
2022-08-17T09:42:22.684Z,25.59
2022-08-17T09:44:57.426Z,25.50
2022-08-17T09:47:31.930Z,25.60
2022-08-17T09:50:07.036Z,25.93
2022-08-17T09:52:36.593Z,26.10
2022-08-17T09:55:07.474Z,26.17
2022-08-17T09:57:52.926Z,26.41
2022-08-17T10:00:25.034Z,26.13
2022-08-17T10:03:04.744Z,26.52
2022-08-17T10:05:37.728Z,26.60
2022-08-17T10:08:15.153Z,26.52
2022-08-17T10:10:56.505Z,26.45
2022-08-17T10:13:35.481Z,26.69
2022-08-17T10:16:15.130Z,26.64
2022-08-17T10:18:52.995Z,26.67
2022-08-17T10:21:40.642Z,26.49
2022-08-17T10:24:32.689Z,26.54
2022-08-17T10:27:02.918Z,26.75
2022-08-17T10:29:49.036Z,26.69
2022-08-17T10:32:26.476Z,26.59
2022-08-17T10:35:07.490Z,26.69
2022-08-17T10:37:49.212Z,26.53
2022-08-17T10:40:28.447Z,26.98
2022-08-17T10:43:00.046Z,26.90
2022-08-17T10:45:33.152Z,26.77
2022-08-17T10:48:06.067Z,26.82
2022-08-17T10:50:50.336Z,26.84
2022-08-17T10:53:52.709Z,26.79
2022-08-17T10:56:43.091Z,26.87
2022-08-17T10:59:10.778Z,26.87
2022-08-17T11:02:03.495Z,26.93
2022-08-17T11:04:47.782Z,27.48
2022-08-17T11:07:27.909Z,27.26
2022-08-17T11:10:19.765Z,27.41
2022-08-17T11:12:57.418Z,27.41
2022-08-17T11:15:45.823Z,27.82
2022-08-17T11:18:30.891Z,28.34
2022-08-17T11:21:18.564Z,28.35
2022-08-17T11:24:01.787Z,27.76
2022-08-17T11:26:32.506Z,27.54
2022-08-17T11:29:05.242Z,27.64
2022-08-17T11:31:39.172Z,27.58
2022-08-17T11:34:15.221Z,27.54
2022-08-17T11:37:01.499Z,27.99
2022-08-17T11:40:11.913Z,27.94
2022-08-17T11:43:13.499Z,27.84
2022-08-17T11:45:58.492Z,27.56
2022-08-17T11:48:54.011Z,27.42
2022-08-17T11:51:35.789Z,27.51
2022-08-17T11:54:31.878Z,27.50
2022-08-17T11:56:59.266Z,27.63
2022-08-17T11:59:55.788Z,27.43
2022-08-17T12:02:35.084Z,27.43
2022-08-17T12:05:26.117Z,27.61
2022-08-17T12:08:08.805Z,27.31
2022-08-17T12:10:41.803Z,27.28
2022-08-17T12:13:15.804Z,27.41
2022-08-17T12:15:49.666Z,27.35
2022-08-17T12:18:24.452Z,27.57
2022-08-17T12:21:19.614Z,27.58
2022-08-17T12:23:56.917Z,27.73
2022-08-17T12:26:30.307Z,27.72
2022-08-17T12:29:01.888Z,27.76
2022-08-17T12:31:33.788Z,27.64
2022-08-17T12:34:04.058Z,27.44
2022-08-17T12:36:33.274Z,27.44
2022-08-17T12:39:13.921Z,27.56
2022-08-17T12:41:44.505Z,27.52
2022-08-17T12:44:15.162Z,27.23
2022-08-17T12:46:49.549Z,27.44
2022-08-17T12:49:29.924Z,27.65
2022-08-17T12:52:12.341Z,27.77
2022-08-17T12:54:46.940Z,27.75
2022-08-17T12:57:18.130Z,27.60
2022-08-17T12:59:52.986Z,27.55
2022-08-17T13:02:29.087Z,27.38
2022-08-17T13:05:01.334Z,27.40
2022-08-17T13:07:35.405Z,27.42
2022-08-17T13:10:04.367Z,27.52
2022-08-17T13:12:35.093Z,27.49
2022-08-17T13:15:03.708Z,27.39
2022-08-17T13:17:36.473Z,27.62
2022-08-17T13:20:14.680Z,27.52
2022-08-17T13:22:44.416Z,27.46
2022-08-17T13:25:17.712Z,27.47
2022-08-17T13:27:54.776Z,27.39
2022-08-17T13:30:28.032Z,27.44
2022-08-17T13:32:58.016Z,27.41
2022-08-17T13:35:47.665Z,27.38
2022-08-17T13:38:36.528Z,27.14
2022-08-17T13:41:06.989Z,27.14
2022-08-17T13:43:40.234Z,27.12
2022-08-17T13:46:11.464Z,27.12
2022-08-17T13:48:39.520Z,27.20
2022-08-17T13:51:25.947Z,27.43
2022-08-17T13:54:01.435Z,27.46
2022-08-17T13:56:39.935Z,27.41
2022-08-17T13:59:12.354Z,27.21
2022-08-17T14:01:42.481Z,27.30
2022-08-17T14:04:12.977Z,27.46
2022-08-17T14:06:53.111Z,27.33
2022-08-17T14:09:25.679Z,27.57
2022-08-17T14:11:55.105Z,27.41
2022-08-17T14:14:23.773Z,27.58
2022-08-17T14:16:52.137Z,27.80
2022-08-17T14:19:22.013Z,27.85
2022-08-17T14:21:56.676Z,27.84
2022-08-17T14:24:28.535Z,27.77
2022-08-17T14:26:57.798Z,27.68
2022-08-17T14:29:28.899Z,27.50
2022-08-17T14:31:58.204Z,27.61
2022-08-17T14:34:26.639Z,27.49
2022-08-17T14:36:56.475Z,27.54
2022-08-17T14:39:24.506Z,27.52
2022-08-17T14:41:53.020Z,27.40
2022-08-17T14:44:20.992Z,27.27
2022-08-17T14:46:50.511Z,27.36
2022-08-17T14:49:20.702Z,27.26
2022-08-17T14:51:48.874Z,26.95
2022-08-17T14:54:32.965Z,26.95
2022-08-17T14:57:23.811Z,26.80
2022-08-17T14:59:54.842Z,26.81
2022-08-17T15:02:29.477Z,26.71
2022-08-17T15:05:00.342Z,26.79
2022-08-17T15:07:30.486Z,26.71
2022-08-17T15:10:01.616Z,26.60
2022-08-17T15:12:34.568Z,26.51
2022-08-17T15:15:04.674Z,26.60
2022-08-17T15:17:43.667Z,26.83
2022-08-17T15:20:15.753Z,26.83
2022-08-17T15:22:45.101Z,26.69
2022-08-17T15:25:14.745Z,26.66
2022-08-17T15:27:42.735Z,26.75
2022-08-17T15:30:11.792Z,26.78
2022-08-17T15:32:45.844Z,26.60
2022-08-17T15:35:27.868Z,26.60
2022-08-17T15:37:58.098Z,26.52
2022-08-17T15:40:27.232Z,26.74
2022-08-17T15:42:55.063Z,26.82
2022-08-17T15:45:26.629Z,26.89
2022-08-17T15:47:54.258Z,26.80
2022-08-17T15:50:22.008Z,26.75
2022-08-17T15:52:56.039Z,26.57
2022-08-17T15:55:24.385Z,26.49
2022-08-17T15:57:53.598Z,26.52
2022-08-17T16:00:23.629Z,26.60
2022-08-17T16:03:46.298Z,26.51
2022-08-17T16:05:40.698Z,26.52
2022-08-17T16:08:10.995Z,26.60
2022-08-17T16:10:38.968Z,26.64
2022-08-17T16:13:17.911Z,26.46
2022-08-17T16:15:51.053Z,26.45
2022-08-17T16:18:30.971Z,26.53
2022-08-17T16:21:19.212Z,26.36
2022-08-17T16:23:47.364Z,26.47
2022-08-17T16:26:14.959Z,26.50
2022-08-17T16:28:43.993Z,26.65
2022-08-17T16:31:12.161Z,26.57
2022-08-17T16:33:40.339Z,26.47
2022-08-17T16:36:08.918Z,26.33
2022-08-17T16:38:38.366Z,26.39
2022-08-17T16:41:06.809Z,26.40
2022-08-17T16:43:35.505Z,26.49
2022-08-17T16:46:04.738Z,26.51
2022-08-17T16:48:32.373Z,26.47
2022-08-17T16:51:04.461Z,26.44
2022-08-17T16:53:32.802Z,26.45
2022-08-17T16:56:00.368Z,26.42
2022-08-17T16:58:28.120Z,26.22
2022-08-17T17:00:59.584Z,26.28
2022-08-17T17:03:31.148Z,26.17
2022-08-17T17:06:07.214Z,26.13
2022-08-17T17:08:42.051Z,26.10
2022-08-17T17:11:15.441Z,26.12
2022-08-17T17:13:48.001Z,26.02
2022-08-17T17:16:21.591Z,26.03
2022-08-17T17:19:09.343Z,26.01
2022-08-17T17:21:43.434Z,26.01
2022-08-17T17:24:16.313Z,25.99
2022-08-17T17:27:09.179Z,25.97
2022-08-17T17:29:48.995Z,25.98
2022-08-17T17:32:22.902Z,25.85
2022-08-17T17:35:02.767Z,25.84
2022-08-17T17:37:35.127Z,25.83
2022-08-17T17:40:07.711Z,25.80
2022-08-17T17:42:35.772Z,25.77
2022-08-17T17:45:16.880Z,25.75
2022-08-17T17:47:45.774Z,25.68
2022-08-17T17:50:16.920Z,25.65
2022-08-17T17:52:53.313Z,25.56
2022-08-17T17:55:34.482Z,25.55
2022-08-17T17:58:14.418Z,25.55
2022-08-17T18:00:50.214Z,25.46
2022-08-17T18:03:36.961Z,25.41
2022-08-17T18:06:19.028Z,25.37
2022-08-17T18:09:10.350Z,25.31
2022-08-17T18:11:54.671Z,25.23
2022-08-17T18:14:38.266Z,25.14
2022-08-17T18:17:07.575Z,25.11
2022-08-17T18:19:35.238Z,25.06
2022-08-17T18:22:12.974Z,25.07
2022-08-17T18:24:45.083Z,25.03
2022-08-17T18:27:23.190Z,24.97
2022-08-17T18:29:52.927Z,24.92
2022-08-17T18:32:33.442Z,24.82
2022-08-17T18:35:27.807Z,24.75
2022-08-17T18:37:58.692Z,24.73
2022-08-17T18:40:31.610Z,24.66
2022-08-17T18:43:03.738Z,24.63
2022-08-17T18:45:34.382Z,24.59
2022-08-17T18:48:04.047Z,24.54
2022-08-17T18:50:39.612Z,24.49
2022-08-17T18:53:26.775Z,24.42
2022-08-17T18:56:22.393Z,24.36
2022-08-17T18:59:09.713Z,24.29
2022-08-17T19:01:52.463Z,24.26
2022-08-17T19:04:36.683Z,24.22
2022-08-17T19:07:24.401Z,24.17
2022-08-17T19:09:56.999Z,24.10
2022-08-17T19:12:32.095Z,24.08
2022-08-17T19:15:01.451Z,24.02
2022-08-17T19:17:37.293Z,23.99
2022-08-17T19:20:13.779Z,23.94
2022-08-17T19:22:52.334Z,23.90
2022-08-17T19:25:27.117Z,23.88
2022-08-17T19:27:58.677Z,23.83
2022-08-17T19:30:27.826Z,23.78
2022-08-17T19:32:57.747Z,23.75
2022-08-17T19:35:31.679Z,23.68
2022-08-17T19:38:12.862Z,23.64
2022-08-17T19:40:53.941Z,23.61
2022-08-17T19:43:30.616Z,23.66
2022-08-17T19:46:05.908Z,23.64
2022-08-17T19:48:48.740Z,23.68
2022-08-17T19:51:21.633Z,23.67
2022-08-17T19:54:05.369Z,23.67
2022-08-17T19:56:43.908Z,23.61
2022-08-17T19:59:17.172Z,23.53
2022-08-17T20:01:48.536Z,23.49
2022-08-17T20:04:33.134Z,23.46
2022-08-17T20:07:04.472Z,23.45
2022-08-17T20:09:38.121Z,23.41
2022-08-17T20:12:10.742Z,23.38
2022-08-17T20:14:53.327Z,23.35
2022-08-17T20:17:24.741Z,23.34
2022-08-17T20:20:02.528Z,23.31
2022-08-17T20:22:49.766Z,23.27
2022-08-17T20:25:30.528Z,23.24
2022-08-17T20:28:06.352Z,23.23
2022-08-17T20:30:38.346Z,23.20
2022-08-17T20:33:12.504Z,23.16
2022-08-17T20:36:00.272Z,23.16
2022-08-17T20:38:41.484Z,23.13
2022-08-17T20:41:15.462Z,23.10
2022-08-17T20:43:51.332Z,23.06
2022-08-17T20:46:43.235Z,23.04
2022-08-17T20:49:26.024Z,23.04
2022-08-17T20:52:01.518Z,23.01
2022-08-17T20:54:44.357Z,22.99
2022-08-17T20:57:49.703Z,22.95
2022-08-17T21:00:45.531Z,22.93
2022-08-17T21:03:52.926Z,22.91
2022-08-17T21:06:23.875Z,22.89
2022-08-17T21:08:57.646Z,22.84
2022-08-17T21:12:02.306Z,22.87
2022-08-17T21:14:56.172Z,22.79
2022-08-17T21:17:40.020Z,22.77
2022-08-17T21:20:24.178Z,22.70
2022-08-17T21:23:03.562Z,22.74
2022-08-17T21:25:55.942Z,22.67
2022-08-17T21:28:34.179Z,22.68
2022-08-17T21:31:08.693Z,22.70
2022-08-17T21:33:38.984Z,22.69
2022-08-17T21:36:24.615Z,22.64
2022-08-17T21:39:08.828Z,22.59
2022-08-17T21:41:47.787Z,22.54
2022-08-17T21:44:22.575Z,22.61
2022-08-17T21:46:53.650Z,22.60
2022-08-17T21:49:27.172Z,22.54
2022-08-17T21:51:57.345Z,22.52
2022-08-17T21:54:31.330Z,22.48
2022-08-17T21:57:01.832Z,22.48
2022-08-17T21:59:34.685Z,22.51
2022-08-17T22:02:06.411Z,22.49
2022-08-17T22:04:36.290Z,22.53
2022-08-17T22:07:06.352Z,22.51
2022-08-17T22:09:36.336Z,22.47
2022-08-17T22:12:09.075Z,22.48
2022-08-17T22:14:52.711Z,22.45
2022-08-17T22:17:25.372Z,22.46
2022-08-17T22:19:56.244Z,22.40
2022-08-17T22:22:34.199Z,22.40
2022-08-17T22:25:03.013Z,22.42
2022-08-17T22:27:47.035Z,22.37
2022-08-17T22:30:20.083Z,22.31
2022-08-17T22:32:49.827Z,22.25
2022-08-17T22:35:33.147Z,22.20
2022-08-17T22:38:32.115Z,22.13
2022-08-17T22:41:30.142Z,22.12
2022-08-17T22:43:59.437Z,22.09
2022-08-17T22:46:28.316Z,22.07
2022-08-17T22:49:00.301Z,22.12
2022-08-17T22:51:31.887Z,22.18
2022-08-17T22:54:21.889Z,22.14
2022-08-17T22:57:11.801Z,22.06
2022-08-17T22:59:46.915Z,22.11
2022-08-17T23:02:26.112Z,22.13
2022-08-17T23:05:16.849Z,22.20
2022-08-17T23:07:46.479Z,22.18
2022-08-17T23:10:15.601Z,22.23
2022-08-17T23:12:43.365Z,22.23
2022-08-17T23:15:14.231Z,22.22
2022-08-17T23:17:42.668Z,22.18
2022-08-17T23:20:17.564Z,22.08
2022-08-17T23:22:51.776Z,22.12
2022-08-17T23:25:25.856Z,22.10
2022-08-17T23:27:54.484Z,22.14
2022-08-17T23:30:27.186Z,22.17
2022-08-17T23:32:56.583Z,22.10
2022-08-17T23:35:39.683Z,22.05
2022-08-17T23:38:09.119Z,22.00
2022-08-17T23:40:37.739Z,22.08
2022-08-17T23:43:17.615Z,22.11
2022-08-17T23:45:52.612Z,22.00
2022-08-17T23:48:34.961Z,21.96
2022-08-17T23:51:09.418Z,21.94
2022-08-17T23:53:40.203Z,22.02
2022-08-17T23:56:11.198Z,22.08
2022-08-17T23:58:43.062Z,22.07
